createdAt,value
2022-11-30T00:02:55.068Z,31.13
2022-11-30T00:08:02.527Z,27.83
2022-11-30T00:13:08.722Z,29.47
2022-11-30T00:18:14.121Z,29.30
2022-11-30T00:23:19.508Z,31.23
2022-11-30T00:28:24.927Z,29.37
2022-11-30T00:33:32.236Z,29.07
2022-11-30T00:38:37.652Z,29.33
2022-11-30T00:43:43.318Z,30.17
2022-11-30T00:48:48.815Z,28.73
2022-11-30T00:53:54.218Z,28.33
2022-11-30T00:58:59.782Z,29.80
2022-11-30T01:04:07.273Z,27.87
2022-11-30T01:09:12.668Z,28.27
2022-11-30T01:14:18.066Z,27.83
2022-11-30T01:19:23.555Z,27.27
2022-11-30T01:24:28.961Z,28.73
2022-11-30T01:29:34.362Z,27.83
2022-11-30T01:34:39.820Z,27.27
2022-11-30T01:39:46.256Z,27.80
2022-11-30T01:45:00.708Z,27.40
2022-11-30T01:50:09.207Z,27.80
2022-11-30T01:55:17.651Z,26.43
2022-11-30T02:00:23.870Z,27.17
2022-11-30T02:05:29.991Z,27.93
2022-11-30T02:10:38.517Z,25.70
2022-11-30T02:16:18.825Z,26.20
2022-11-30T02:21:36.248Z,26.80
2022-11-30T02:26:47.483Z,25.97
2022-11-30T02:32:07.906Z,28.47
2022-11-30T02:37:16.413Z,25.70
2022-11-30T02:42:22.025Z,28.73
2022-11-30T02:47:45.499Z,27.53
2022-11-30T02:52:53.017Z,28.13
2022-11-30T02:57:58.768Z,27.57
2022-11-30T03:03:04.199Z,28.33
2022-11-30T03:08:09.695Z,27.53
2022-11-30T03:13:15.076Z,27.50
2022-11-30T03:18:20.463Z,28.43
2022-11-30T03:23:26.040Z,28.67
2022-11-30T03:28:31.452Z,28.07
2022-11-30T03:33:36.853Z,27.77
2022-11-30T03:38:42.309Z,28.23
2022-11-30T03:43:48.703Z,27.73
2022-11-30T03:48:54.457Z,27.53
2022-11-30T03:53:59.902Z,28.20
2022-11-30T03:59:05.475Z,29.93
2022-11-30T04:04:12.507Z,28.67
2022-11-30T04:09:17.901Z,25.40
2022-11-30T04:14:23.294Z,27.77
2022-11-30T04:19:28.688Z,25.43
2022-11-30T04:24:34.071Z,29.00
2022-11-30T04:29:39.540Z,27.40
2022-11-30T04:34:45.364Z,28.90
2022-11-30T04:39:51.196Z,28.07
2022-11-30T04:44:56.576Z,28.63
2022-11-30T04:50:01.964Z,27.10
2022-11-30T04:55:08.226Z,29.17
2022-11-30T05:00:15.409Z,28.80
2022-11-30T05:05:21.267Z,27.90
2022-11-30T05:10:28.195Z,29.13
2022-11-30T05:15:33.855Z,29.57
2022-11-30T05:20:39.258Z,28.20
2022-11-30T05:25:45.188Z,27.43
2022-11-30T05:30:50.671Z,30.30
2022-11-30T05:35:56.137Z,27.33
2022-11-30T05:41:04.576Z,28.10
2022-11-30T05:46:11.771Z,30.53
2022-11-30T05:51:18.898Z,28.30
2022-11-30T05:56:24.360Z,27.80
2022-11-30T06:01:30.522Z,29.20
2022-11-30T06:06:35.907Z,28.53
2022-11-30T06:11:41.666Z,29.33
2022-11-30T06:16:47.435Z,29.33
2022-11-30T06:21:52.852Z,26.87
2022-11-30T06:26:58.317Z,27.37
2022-11-30T06:32:04.045Z,29.77
2022-11-30T06:37:09.455Z,30.67
2022-11-30T06:42:14.848Z,29.43
2022-11-30T06:47:20.248Z,31.43
2022-11-30T06:52:25.906Z,30.00
2022-11-30T06:57:31.957Z,29.90
2022-11-30T07:02:38.131Z,30.53
2022-11-30T07:07:43.589Z,30.83
2022-11-30T07:12:48.998Z,29.37
2022-11-30T07:17:54.405Z,28.27
2022-11-30T07:23:01.443Z,30.73
2022-11-30T07:28:08.708Z,31.80
2022-11-30T07:33:14.111Z,32.57
2022-11-30T07:38:19.574Z,30.47
2022-11-30T07:43:24.957Z,32.17
2022-11-30T07:48:30.349Z,30.87
2022-11-30T07:53:35.965Z,31.17
2022-11-30T07:58:41.996Z,33.53
2022-11-30T08:03:48.099Z,31.73
2022-11-30T08:08:55.190Z,31.67
2022-11-30T08:14:00.864Z,32.67
2022-11-30T08:19:06.760Z,30.93
2022-11-30T08:24:16.260Z,31.87
2022-11-30T08:29:21.687Z,32.00
2022-11-30T08:34:27.151Z,32.67
2022-11-30T08:39:34.258Z,32.07
2022-11-30T08:44:39.802Z,34.63
2022-11-30T08:49:45.311Z,33.63
2022-11-30T08:54:52.765Z,31.90
2022-11-30T08:59:58.674Z,32.90
2022-11-30T09:05:04.212Z,31.63
2022-11-30T09:10:10.407Z,31.40
2022-11-30T09:15:15.875Z,32.27
2022-11-30T09:20:21.437Z,32.47
2022-11-30T09:25:26.833Z,31.80
2022-11-30T09:30:32.348Z,31.63
2022-11-30T09:35:37.790Z,30.37
2022-11-30T09:40:43.621Z,30.47
2022-11-30T09:45:52.101Z,30.87
2022-11-30T09:51:00.107Z,32.10
2022-11-30T09:56:08.584Z,32.67
2022-11-30T10:01:19.587Z,32.43
2022-11-30T10:06:33.707Z,32.60
2022-11-30T10:11:51.130Z,33.10
2022-11-30T10:17:05.373Z,32.13
2022-11-30T10:22:41.128Z,33.80
2022-11-30T10:27:54.602Z,32.10
2022-11-30T10:33:04.816Z,33.73
2022-11-30T10:38:16.495Z,33.07
2022-11-30T10:43:40.038Z,31.67
2022-11-30T10:48:48.628Z,31.03
2022-11-30T10:53:54.193Z,32.53
2022-11-30T10:59:11.758Z,30.80
2022-11-30T11:04:27.626Z,29.63
2022-11-30T11:09:42.354Z,27.87
2022-11-30T11:14:48.182Z,26.63
2022-11-30T11:19:53.589Z,30.40
2022-11-30T11:25:18.736Z,28.77
2022-11-30T11:30:30.225Z,29.20
2022-11-30T11:35:53.129Z,27.30
2022-11-30T11:41:01.693Z,26.87
2022-11-30T11:46:14.541Z,29.67
2022-11-30T11:51:22.989Z,27.83
2022-11-30T11:56:34.704Z,28.70
2022-11-30T12:02:16.793Z,27.53
2022-11-30T12:07:27.952Z,26.37
2022-11-30T12:12:34.173Z,25.33
2022-11-30T12:17:54.725Z,27.17
2022-11-30T12:23:15.271Z,28.87
2022-11-30T12:28:44.826Z,27.43
2022-11-30T12:34:10.200Z,26.87
2022-11-30T12:39:38.252Z,27.47
2022-11-30T12:45:06.727Z,28.93
2022-11-30T12:50:24.258Z,27.23
2022-11-30T12:55:47.955Z,29.03
2022-11-30T13:01:02.967Z,28.37
2022-11-30T13:06:17.335Z,27.43
2022-11-30T13:11:35.045Z,26.60
2022-11-30T13:16:42.976Z,26.93
2022-11-30T13:21:51.410Z,25.90
2022-11-30T13:27:08.720Z,26.23
2022-11-30T13:37:27.321Z,29.40
2022-11-30T13:42:47.362Z,27.63
2022-11-30T13:47:52.665Z,27.47
2022-11-30T13:53:28.642Z,26.97
2022-11-30T13:58:34.655Z,29.13
2022-11-30T14:03:40.181Z,29.43
2022-11-30T14:08:45.564Z,27.10
2022-11-30T14:13:51.263Z,29.80
2022-11-30T14:18:58.023Z,27.83
2022-11-30T14:24:09.332Z,28.10
2022-11-30T14:29:24.495Z,27.93
2022-11-30T14:34:51.082Z,29.67
2022-11-30T14:39:59.513Z,29.97
2022-11-30T14:45:06.932Z,29.60
2022-11-30T14:50:15.466Z,28.37
2022-11-30T14:55:46.596Z,30.40
2022-11-30T15:00:52.710Z,30.60
2022-11-30T15:06:04.256Z,30.43
2022-11-30T15:11:14.998Z,28.63
2022-11-30T15:16:31.394Z,32.37
2022-11-30T15:21:36.841Z,30.80
2022-11-30T15:26:51.518Z,28.87
2022-11-30T15:32:00.364Z,28.70
2022-11-30T15:37:06.283Z,27.83
2022-11-30T15:42:14.746Z,28.17
2022-11-30T15:47:28.620Z,29.60
2022-11-30T15:52:35.520Z,29.83
2022-11-30T15:57:58.405Z,29.60
2022-11-30T16:03:14.275Z,28.17
2022-11-30T16:08:20.056Z,29.37
2022-11-30T16:13:29.114Z,28.67
2022-11-30T16:18:34.780Z,25.13
2022-11-30T16:23:40.319Z,28.57
2022-11-30T16:28:45.803Z,26.70
2022-11-30T16:33:51.800Z,26.10
2022-11-30T16:38:58.001Z,27.43
2022-11-30T16:44:03.399Z,25.70
2022-11-30T16:49:08.888Z,26.53
2022-11-30T16:54:16.356Z,32.73
2022-11-30T16:59:22.169Z,25.23
2022-11-30T17:04:32.830Z,25.03
2022-11-30T17:09:39.274Z,25.57
2022-11-30T17:14:44.883Z,25.20
2022-11-30T17:19:50.585Z,24.10
2022-11-30T17:24:56.708Z,27.57
2022-11-30T17:30:02.189Z,27.27
2022-11-30T17:35:09.014Z,27.70
2022-11-30T17:40:18.605Z,22.87
2022-11-30T17:45:24.386Z,26.70
2022-11-30T17:50:29.866Z,26.30
2022-11-30T17:55:35.591Z,24.27
2022-11-30T18:00:40.988Z,24.23
2022-11-30T18:05:46.436Z,25.63
2022-11-30T18:10:51.834Z,25.27
2022-11-30T18:16:09.570Z,27.20
2022-11-30T18:21:18.510Z,26.27
2022-11-30T18:26:26.005Z,25.50
2022-11-30T18:31:32.714Z,25.77
2022-11-30T18:36:38.155Z,26.10
2022-11-30T18:41:43.559Z,27.97
2022-11-30T18:46:49.014Z,26.17
2022-11-30T18:51:55.254Z,25.27
2022-11-30T18:57:01.739Z,26.70
2022-11-30T19:02:09.638Z,26.57
2022-11-30T19:07:15.547Z,25.63
2022-11-30T19:12:21.099Z,26.83
2022-11-30T19:17:26.781Z,27.00
2022-11-30T19:22:32.968Z,28.70
2022-11-30T19:27:39.145Z,27.17
2022-11-30T19:32:44.606Z,27.07
2022-11-30T19:37:51.717Z,29.67
2022-11-30T19:42:57.862Z,25.00
2022-11-30T19:48:03.259Z,24.97
2022-11-30T19:53:08.904Z,23.50
2022-11-30T19:58:14.986Z,28.87
2022-11-30T20:03:20.884Z,28.17
2022-11-30T20:08:26.309Z,26.80
2022-11-30T20:13:32.080Z,27.53
2022-11-30T20:18:41.409Z,29.17
2022-11-30T20:23:47.261Z,28.23
2022-11-30T20:28:54.675Z,28.03
2022-11-30T20:34:00.514Z,27.23
2022-11-30T20:39:10.360Z,27.50
2022-11-30T20:44:16.558Z,28.23
2022-11-30T20:49:22.130Z,28.60
2022-11-30T20:54:29.236Z,27.10
2022-11-30T20:59:34.690Z,26.73
2022-11-30T21:04:40.326Z,27.40
2022-11-30T21:09:45.728Z,27.00
2022-11-30T21:14:51.172Z,25.97
2022-11-30T21:19:56.971Z,26.03
2022-11-30T21:25:02.438Z,27.10
2022-11-30T21:30:08.825Z,25.70
2022-11-30T21:35:14.255Z,26.13
2022-11-30T21:40:19.859Z,25.23
2022-11-30T21:45:25.417Z,23.57
2022-11-30T21:50:30.920Z,22.77
2022-11-30T21:55:38.034Z,23.10
2022-11-30T22:00:43.441Z,25.23
2022-11-30T22:06:03.447Z,25.70
2022-11-30T22:11:14.833Z,24.27
2022-11-30T22:16:21.778Z,25.90
2022-11-30T22:21:30.240Z,27.50
2022-11-30T22:26:38.674Z,24.83
2022-11-30T22:31:47.023Z,25.07
2022-11-30T22:36:52.554Z,23.70
2022-11-30T22:41:57.947Z,25.43
2022-11-30T22:47:03.427Z,25.93
2022-11-30T22:52:09.021Z,25.37
2022-11-30T22:57:14.417Z,26.87
2022-11-30T23:02:19.857Z,26.57
2022-11-30T23:07:30.464Z,24.77
2022-11-30T23:12:57.814Z,24.63
2022-11-30T23:17:39.449Z,24.83
2022-11-30T23:22:44.845Z,24.80
2022-11-30T23:27:50.237Z,24.70
2022-11-30T23:32:57.431Z,23.50
2022-11-30T23:38:02.889Z,23.77
2022-11-30T23:43:08.290Z,24.80
2022-11-30T23:48:13.922Z,23.43
2022-11-30T23:53:19.484Z,24.90
2022-11-30T23:58:25.886Z,22.77
